LGSA/CHQ METAR and TAF weather

Enter ICAO airport designator
Station Type Date Time Source
LGSA METAR 2024/02/26 18:50 UTC NOAA

LGSA 261850Z 24010G20KT 9999 FEW018 BKN025 14/12 Q1005


Station Type Date Time Source
LGSA Decoded METAR 2024/02/26 18:50 UTC NOAA

Souda Airport , Greece (LGSA) 35-29N 024-07E 151M
Feb 26, 2024 - 01:50 PM EST / 2024.02.26 1850 UTC
Wind: from the WSW (240 degrees) at 12 MPH (10 KT) gusting to 23 MPH (20 KT):0
Visibility: greater than 7 mile(s):0
Sky conditions: mostly cloudy
Temperature: 57 F (14 C)
Dew Point: 53 F (12 C)
Relative Humidity: 87%
Pressure (altimeter): 29.68 in. Hg (1005 hPa)
ob: LGSA 261850Z 24010G20KT 9999 FEW018 BKN025 14/12 Q1005
cycle: 19

Station Type Date Time Source
LGSA TAF 2024/02/26 18:12 UTC NOAA